createdAt,value
2019-06-26T00:02:09.679Z,27.20
2019-06-26T00:04:36.877Z,27.00
2019-06-26T00:07:03.334Z,27.00
2019-06-26T00:09:29.845Z,27.00
2019-06-26T00:11:56.066Z,27.10
2019-06-26T00:14:22.255Z,27.10
2019-06-26T00:16:48.484Z,26.90
2019-06-26T00:19:14.724Z,26.80
2019-06-26T00:21:41.166Z,26.60
2019-06-26T00:24:07.394Z,26.60
2019-06-26T00:26:33.569Z,26.60
2019-06-26T00:28:59.747Z,26.70
2019-06-26T00:31:26.091Z,26.50
2019-06-26T00:33:52.467Z,26.70
2019-06-26T00:36:18.666Z,26.60
2019-06-26T00:38:44.853Z,26.50
2019-06-26T00:41:11.394Z,26.40
2019-06-26T00:43:42.341Z,26.40
2019-06-26T00:46:05.827Z,26.30
2019-06-26T00:48:32.259Z,26.40
2019-06-26T00:50:58.559Z,26.40
2019-06-26T00:53:24.849Z,26.40
2019-06-26T00:55:51.147Z,26.50
2019-06-26T00:58:17.349Z,26.40
2019-06-26T01:00:50.195Z,26.40
2019-06-26T01:03:16.649Z,26.20
2019-06-26T01:05:42.831Z,26.30
2019-06-26T01:08:09.028Z,26.20
2019-06-26T01:10:35.323Z,26.20
2019-06-26T01:13:01.747Z,26.10
2019-06-26T01:15:27.932Z,26.10
2019-06-26T01:17:54.137Z,26.00
2019-06-26T01:20:20.807Z,26.20
2019-06-26T01:22:47.017Z,26.20
2019-06-26T01:25:13.399Z,26.00
2019-06-26T01:27:39.601Z,25.90
2019-06-26T01:30:06.783Z,25.80
2019-06-26T01:32:33.165Z,25.90
2019-06-26T01:34:59.332Z,26.00
2019-06-26T01:37:26.567Z,25.80
2019-06-26T01:39:53.093Z,25.90
2019-06-26T01:42:19.320Z,25.90
2019-06-26T01:44:45.490Z,25.70
2019-06-26T01:47:11.709Z,25.70
2019-06-26T01:49:38.005Z,25.60
2019-06-26T01:52:04.264Z,25.70
2019-06-26T01:54:30.449Z,25.60
2019-06-26T01:56:57.128Z,25.60
2019-06-26T01:59:23.319Z,25.50
2019-06-26T02:01:49.725Z,25.60
2019-06-26T02:04:16.956Z,25.50
2019-06-26T02:06:43.481Z,25.40
2019-06-26T02:09:10.843Z,25.40
2019-06-26T02:11:37.016Z,25.30
2019-06-26T02:14:03.973Z,25.30
2019-06-26T02:16:31.246Z,25.20
2019-06-26T02:19:02.210Z,25.30
2019-06-26T02:21:28.501Z,25.20
2019-06-26T02:23:55.034Z,25.10
2019-06-26T02:26:21.250Z,25.10
2019-06-26T02:28:47.534Z,24.90
2019-06-26T02:31:13.823Z,24.90
2019-06-26T02:33:40.220Z,24.90
2019-06-26T02:36:06.560Z,24.90
2019-06-26T02:38:32.985Z,24.90
2019-06-26T02:41:01.321Z,24.90
2019-06-26T02:43:28.902Z,24.70
2019-06-26T02:45:55.106Z,24.70
2019-06-26T02:48:21.306Z,24.70
2019-06-26T02:50:47.795Z,24.70
2019-06-26T02:53:14.094Z,24.70
2019-06-26T02:55:40.471Z,24.70
2019-06-26T02:58:06.966Z,24.50
2019-06-26T03:00:33.170Z,24.60
2019-06-26T03:02:59.516Z,24.50
2019-06-26T03:05:25.713Z,24.40
2019-06-26T03:07:52.418Z,24.50
2019-06-26T03:10:18.749Z,24.70
2019-06-26T03:12:45.998Z,24.50
2019-06-26T03:15:13.069Z,24.30
2019-06-26T03:17:54.322Z,24.20
2019-06-26T03:20:08.107Z,24.20
2019-06-26T03:22:34.413Z,24.20
2019-06-26T03:25:00.598Z,24.20
2019-06-26T03:27:26.891Z,24.20
2019-06-26T03:29:53.106Z,24.20
2019-06-26T03:32:19.286Z,24.10
2019-06-26T03:34:45.497Z,24.10
2019-06-26T03:37:12.068Z,24.20
2019-06-26T03:39:38.606Z,24.20
2019-06-26T03:42:05.057Z,24.10
2019-06-26T03:44:39.217Z,24.00
2019-06-26T03:47:05.731Z,24.10
2019-06-26T03:49:31.905Z,24.10
2019-06-26T03:51:58.986Z,24.10
2019-06-26T03:54:25.336Z,24.20
2019-06-26T03:56:51.858Z,24.10
2019-06-26T03:59:18.098Z,24.20
2019-06-26T04:01:44.383Z,24.20
2019-06-26T04:04:10.888Z,24.30
2019-06-26T04:06:37.132Z,24.20
2019-06-26T04:09:04.716Z,24.10
2019-06-26T04:11:31.044Z,24.20
2019-06-26T04:13:57.782Z,24.10
2019-06-26T04:16:24.048Z,23.90
2019-06-26T04:18:50.284Z,24.10
2019-06-26T04:21:16.471Z,24.00
2019-06-26T04:23:44.070Z,24.00
2019-06-26T04:26:10.532Z,24.10
2019-06-26T04:28:37.733Z,24.00
2019-06-26T04:31:04.221Z,23.90
2019-06-26T04:33:30.431Z,23.90
2019-06-26T04:35:56.706Z,23.90
2019-06-26T04:38:23.267Z,23.80
2019-06-26T04:40:49.551Z,23.70
2019-06-26T04:43:17.119Z,23.70
2019-06-26T04:45:57.119Z,23.90
2019-06-26T04:48:11.608Z,23.90
2019-06-26T04:50:38.065Z,23.80
2019-06-26T04:53:04.273Z,23.80
2019-06-26T04:55:30.489Z,23.80
2019-06-26T04:57:57.041Z,23.70
2019-06-26T05:00:23.692Z,23.50
2019-06-26T05:02:50.459Z,23.30
2019-06-26T05:05:17.276Z,23.20
2019-06-26T05:07:44.026Z,23.20
2019-06-26T05:10:10.556Z,23.30
2019-06-26T05:12:36.728Z,23.20
2019-06-26T05:15:08.386Z,23.30
2019-06-26T05:17:35.566Z,23.40
2019-06-26T05:20:04.227Z,23.30
2019-06-26T05:22:31.117Z,23.50
2019-06-26T05:24:57.317Z,23.50
2019-06-26T05:27:23.531Z,23.70
2019-06-26T05:29:49.952Z,24.00
2019-06-26T05:32:16.174Z,24.10
2019-06-26T05:34:42.657Z,24.30
2019-06-26T05:37:09.174Z,24.70
2019-06-26T05:39:35.642Z,24.70
2019-06-26T05:42:06.760Z,24.50
2019-06-26T05:44:33.416Z,24.60
2019-06-26T05:46:59.821Z,24.60
2019-06-26T05:49:26.682Z,24.50
2019-06-26T05:51:52.899Z,24.90
2019-06-26T05:54:19.060Z,25.20
2019-06-26T05:56:45.734Z,25.30
2019-06-26T05:59:12.278Z,25.10
2019-06-26T06:01:38.472Z,25.10
2019-06-26T06:04:04.715Z,25.70
2019-06-26T06:06:41.105Z,25.70
2019-06-26T06:08:59.930Z,25.30
2019-06-26T06:11:26.313Z,25.80
2019-06-26T06:13:52.873Z,25.70
2019-06-26T06:16:19.089Z,26.00
2019-06-26T06:18:45.390Z,25.90
2019-06-26T06:21:11.622Z,26.50
2019-06-26T06:23:38.085Z,26.50
2019-06-26T06:26:04.247Z,25.80
2019-06-26T06:28:30.440Z,26.50
2019-06-26T06:30:56.716Z,26.50
2019-06-26T06:33:22.890Z,26.60
2019-06-26T06:35:49.316Z,26.70
2019-06-26T06:38:15.953Z,26.50
2019-06-26T06:40:42.253Z,26.90
2019-06-26T06:43:10.048Z,26.40
2019-06-26T06:45:36.476Z,27.10
2019-06-26T06:48:03.154Z,27.40
2019-06-26T06:50:29.342Z,28.00
2019-06-26T06:52:55.580Z,27.10
2019-06-26T06:55:21.750Z,26.90
2019-06-26T06:57:47.983Z,27.50
2019-06-26T07:00:15.388Z,27.80
2019-06-26T07:02:41.770Z,27.30
2019-06-26T07:05:09.064Z,27.20
2019-06-26T07:07:35.434Z,27.20
2019-06-26T07:10:02.192Z,27.60
2019-06-26T07:12:28.429Z,26.80
2019-06-26T07:14:54.682Z,27.10
2019-06-26T07:17:23.047Z,27.10
2019-06-26T07:19:49.305Z,27.50
2019-06-26T07:22:15.570Z,27.70
2019-06-26T07:24:42.740Z,27.20
2019-06-26T07:27:08.916Z,27.60
2019-06-26T07:29:35.125Z,27.80
2019-06-26T07:32:01.637Z,28.30
2019-06-26T07:34:28.998Z,28.40
2019-06-26T07:36:55.164Z,28.30
2019-06-26T07:39:21.347Z,27.80
2019-06-26T07:41:47.792Z,27.60
2019-06-26T07:44:14.102Z,28.10
2019-06-26T07:46:40.640Z,28.40
2019-06-26T07:49:06.931Z,28.70
2019-06-26T07:51:33.739Z,29.90
2019-06-26T07:54:00.800Z,29.50
2019-06-26T07:56:27.172Z,28.90
2019-06-26T07:58:53.475Z,29.30
2019-06-26T08:01:20.092Z,29.30
2019-06-26T08:03:46.709Z,28.70
2019-06-26T08:06:13.145Z,28.70
2019-06-26T08:08:39.782Z,28.90
2019-06-26T08:11:06.658Z,29.40
2019-06-26T08:13:33.897Z,29.20
2019-06-26T08:16:00.129Z,29.70
2019-06-26T08:18:26.333Z,29.30
2019-06-26T08:21:11.059Z,29.00
2019-06-26T08:23:22.666Z,29.40
2019-06-26T08:25:48.894Z,29.50
2019-06-26T08:28:15.331Z,29.70
2019-06-26T08:30:41.705Z,29.90
2019-06-26T08:33:07.891Z,29.90
2019-06-26T08:35:34.510Z,29.70
2019-06-26T08:38:10.949Z,29.50
2019-06-26T08:40:30.120Z,29.70
2019-06-26T08:42:56.453Z,29.40
2019-06-26T08:45:22.757Z,30.30
2019-06-26T08:47:49.358Z,29.40
2019-06-26T08:50:16.286Z,29.80
2019-06-26T08:52:42.552Z,29.40
2019-06-26T08:55:10.558Z,29.30
2019-06-26T08:57:37.074Z,29.40
2019-06-26T09:00:07.204Z,30.00
2019-06-26T09:02:33.711Z,30.20
2019-06-26T09:05:00.258Z,29.90
2019-06-26T09:07:26.955Z,30.60
2019-06-26T09:09:53.109Z,30.30
2019-06-26T09:12:19.341Z,30.80
2019-06-26T09:14:45.587Z,31.40
2019-06-26T09:17:12.316Z,30.80
2019-06-26T09:19:38.619Z,30.00
2019-06-26T09:22:06.709Z,30.00
2019-06-26T09:24:33.233Z,31.40
2019-06-26T09:26:59.526Z,30.90
2019-06-26T09:29:25.795Z,31.60
2019-06-26T09:31:54.373Z,31.60
2019-06-26T09:34:20.575Z,31.50
2019-06-26T09:36:46.814Z,30.50
2019-06-26T09:39:13.118Z,31.00
2019-06-26T09:41:39.460Z,31.70
2019-06-26T09:44:05.718Z,31.20
2019-06-26T09:46:31.967Z,31.20
2019-06-26T09:48:58.622Z,30.20
2019-06-26T09:51:25.181Z,29.90
2019-06-26T09:53:51.669Z,30.80
2019-06-26T09:56:18.161Z,30.50
2019-06-26T09:58:48.844Z,29.90
2019-06-26T10:01:15.340Z,29.90
2019-06-26T10:03:45.041Z,29.60
2019-06-26T10:06:09.972Z,30.00
2019-06-26T10:08:36.504Z,30.30
2019-06-26T10:11:02.853Z,31.30
2019-06-26T10:13:29.125Z,31.90
2019-06-26T10:15:59.482Z,30.80
2019-06-26T10:18:24.292Z,30.80
2019-06-26T10:20:51.585Z,30.10
2019-06-26T10:23:18.121Z,30.70
2019-06-26T10:25:44.324Z,30.10
2019-06-26T10:28:10.843Z,30.50
2019-06-26T10:30:37.493Z,30.40
2019-06-26T10:33:04.038Z,30.10
2019-06-26T10:35:30.357Z,29.90
2019-06-26T10:37:56.557Z,30.10
2019-06-26T10:40:22.821Z,30.40
2019-06-26T10:42:49.021Z,30.40
2019-06-26T10:45:15.387Z,30.30
2019-06-26T10:47:41.642Z,30.30
2019-06-26T10:50:08.120Z,30.80
2019-06-26T10:52:34.441Z,29.80
2019-06-26T10:55:00.758Z,30.40
2019-06-26T10:57:27.328Z,30.90
2019-06-26T10:59:56.058Z,30.30
2019-06-26T11:02:22.555Z,30.30
2019-06-26T11:04:48.856Z,30.50
2019-06-26T11:07:15.083Z,31.00
2019-06-26T11:09:41.370Z,30.40
2019-06-26T11:12:08.014Z,30.30
2019-06-26T11:14:35.259Z,30.90
2019-06-26T11:17:02.667Z,31.30
2019-06-26T11:19:42.623Z,31.60
2019-06-26T11:21:57.029Z,31.20
2019-06-26T11:24:23.257Z,30.70
2019-06-26T11:26:49.594Z,31.00
2019-06-26T11:29:15.863Z,30.50
2019-06-26T11:31:42.226Z,31.00
2019-06-26T11:34:08.479Z,30.90
2019-06-26T11:36:34.836Z,31.20
2019-06-26T11:39:01.598Z,30.60
2019-06-26T11:41:29.756Z,30.60
2019-06-26T11:43:56.016Z,30.50
2019-06-26T11:46:22.213Z,31.10
2019-06-26T11:48:48.379Z,30.50
2019-06-26T11:51:14.649Z,31.10
2019-06-26T11:53:42.828Z,30.70
2019-06-26T11:56:09.452Z,29.90
2019-06-26T11:58:35.978Z,30.90
2019-06-26T12:01:02.205Z,31.20
2019-06-26T12:03:28.468Z,31.00
2019-06-26T12:06:10.513Z,30.70
2019-06-26T12:08:23.294Z,30.70
2019-06-26T12:10:49.487Z,30.70
2019-06-26T12:13:16.038Z,30.80
2019-06-26T12:15:42.522Z,31.00
2019-06-26T12:18:08.821Z,31.10
2019-06-26T12:20:35.027Z,31.70
2019-06-26T12:23:01.197Z,31.40
2019-06-26T12:25:28.376Z,31.30
2019-06-26T12:27:54.615Z,30.80
2019-06-26T12:30:21.611Z,31.10
2019-06-26T12:33:02.373Z,31.30
2019-06-26T12:35:16.506Z,31.10
2019-06-26T12:37:42.863Z,31.00
2019-06-26T12:40:09.687Z,30.60
2019-06-26T12:42:35.939Z,30.70
2019-06-26T12:45:04.648Z,30.80
2019-06-26T12:47:31.011Z,31.20
2019-06-26T12:50:00.384Z,31.30
2019-06-26T12:52:26.891Z,30.80
2019-06-26T12:54:53.214Z,30.60
2019-06-26T12:57:19.406Z,31.00
2019-06-26T12:59:56.491Z,30.90
2019-06-26T13:02:13.810Z,31.30
2019-06-26T13:04:43.628Z,31.10
2019-06-26T13:07:08.470Z,30.90
2019-06-26T13:09:34.963Z,30.90
2019-06-26T13:12:01.148Z,31.20
2019-06-26T13:14:27.518Z,31.40
2019-06-26T13:16:54.122Z,31.50
2019-06-26T13:19:20.454Z,31.40
2019-06-26T13:21:47.722Z,31.50
2019-06-26T13:24:14.268Z,31.50
2019-06-26T13:26:40.472Z,31.70
2019-06-26T13:29:09.814Z,31.80
2019-06-26T13:31:35.086Z,32.20
2019-06-26T13:34:01.648Z,32.40
2019-06-26T13:36:27.895Z,31.90
2019-06-26T13:38:54.221Z,32.10
2019-06-26T13:41:20.506Z,32.30
2019-06-26T13:43:46.761Z,32.00
2019-06-26T13:46:12.984Z,31.80
2019-06-26T13:48:39.228Z,31.70
2019-06-26T13:51:09.812Z,31.90
2019-06-26T13:53:33.623Z,32.00
2019-06-26T13:55:59.812Z,31.70
2019-06-26T13:58:25.992Z,31.30
2019-06-26T14:00:52.485Z,31.70
2019-06-26T14:03:18.723Z,31.80
2019-06-26T14:05:46.337Z,31.70
2019-06-26T14:08:12.917Z,31.40
2019-06-26T14:10:39.244Z,31.40
2019-06-26T14:13:06.665Z,31.50
2019-06-26T14:15:32.892Z,31.50
2019-06-26T14:17:59.312Z,31.50
2019-06-26T14:20:26.656Z,31.30
2019-06-26T14:22:53.283Z,31.50
2019-06-26T14:25:19.745Z,31.50
2019-06-26T14:27:47.039Z,31.90
2019-06-26T14:30:13.906Z,31.90
2019-06-26T14:32:40.150Z,31.70
2019-06-26T14:35:06.939Z,31.40
2019-06-26T14:37:33.429Z,31.40
2019-06-26T14:39:59.998Z,31.40
2019-06-26T14:42:26.267Z,31.50
2019-06-26T14:44:54.670Z,31.10
2019-06-26T14:47:20.889Z,31.20
2019-06-26T14:49:47.180Z,31.50
2019-06-26T14:52:13.460Z,31.80
2019-06-26T14:54:40.108Z,31.70
2019-06-26T14:57:06.507Z,31.30
2019-06-26T14:59:32.755Z,31.00
2019-06-26T15:01:59.180Z,31.30
2019-06-26T15:04:25.567Z,31.70
2019-06-26T15:06:51.766Z,31.50
2019-06-26T15:09:17.917Z,31.10
2019-06-26T15:11:44.220Z,31.40
2019-06-26T15:14:10.662Z,31.40
2019-06-26T15:16:36.964Z,31.10
2019-06-26T15:19:03.273Z,31.60
2019-06-26T15:21:29.469Z,31.50
2019-06-26T15:23:55.652Z,31.50
2019-06-26T15:26:22.283Z,31.50
2019-06-26T15:28:50.143Z,30.90
2019-06-26T15:31:16.375Z,31.00
2019-06-26T15:33:42.866Z,31.10
2019-06-26T15:36:09.143Z,31.10
2019-06-26T15:38:35.688Z,30.80
2019-06-26T15:41:01.924Z,30.70
2019-06-26T15:43:28.233Z,30.90
2019-06-26T15:45:54.498Z,31.00
2019-06-26T15:48:21.157Z,31.00
2019-06-26T15:50:47.405Z,30.80
2019-06-26T15:53:13.683Z,31.00
2019-06-26T15:55:39.914Z,31.00
2019-06-26T15:58:07.165Z,30.60
2019-06-26T16:00:33.342Z,30.70
2019-06-26T16:02:59.590Z,30.30
2019-06-26T16:05:26.746Z,30.40
2019-06-26T16:07:53.126Z,30.60
2019-06-26T16:10:19.579Z,30.30
2019-06-26T16:12:45.980Z,30.20
2019-06-26T16:15:13.173Z,30.00
2019-06-26T16:17:43.918Z,30.20
2019-06-26T16:20:12.616Z,30.20
2019-06-26T16:22:39.376Z,30.10
2019-06-26T16:25:07.525Z,30.20
2019-06-26T16:27:33.867Z,30.20
2019-06-26T16:30:00.151Z,30.10
2019-06-26T16:32:33.482Z,29.90
2019-06-26T16:35:04.386Z,29.70
2019-06-26T16:37:30.790Z,30.00
2019-06-26T16:39:57.039Z,29.90
2019-06-26T16:42:23.452Z,29.80
2019-06-26T16:44:49.760Z,29.80
2019-06-26T16:47:15.926Z,29.50
2019-06-26T16:49:42.196Z,29.80
2019-06-26T16:52:09.267Z,29.60
2019-06-26T16:54:35.790Z,29.70
2019-06-26T16:57:02.405Z,29.80
2019-06-26T16:59:28.697Z,29.70
2019-06-26T17:01:54.937Z,29.50
2019-06-26T17:04:21.120Z,29.30
2019-06-26T17:06:47.352Z,29.40
2019-06-26T17:09:13.795Z,29.30
2019-06-26T17:11:40.201Z,29.30
2019-06-26T17:14:09.003Z,29.20
2019-06-26T17:16:37.885Z,28.90
2019-06-26T17:19:04.152Z,29.00
2019-06-26T17:21:30.672Z,28.90
2019-06-26T17:23:56.982Z,29.00
2019-06-26T17:26:23.300Z,28.80
2019-06-26T17:28:49.742Z,28.70
2019-06-26T17:31:16.210Z,28.60
2019-06-26T17:33:42.880Z,28.70
2019-06-26T17:36:09.564Z,28.70
2019-06-26T17:38:35.927Z,28.80
2019-06-26T17:41:02.613Z,28.60
2019-06-26T17:43:28.804Z,28.70
2019-06-26T17:45:55.113Z,28.60
2019-06-26T17:48:21.544Z,28.40
2019-06-26T17:50:47.787Z,28.30
2019-06-26T17:53:21.519Z,28.30
2019-06-26T17:55:42.636Z,28.40
2019-06-26T17:58:09.273Z,28.30
2019-06-26T18:00:35.571Z,28.30
2019-06-26T18:03:01.797Z,28.20
2019-06-26T18:05:28.062Z,28.20
2019-06-26T18:07:54.634Z,28.20
2019-06-26T18:10:21.302Z,28.00
2019-06-26T18:12:47.913Z,27.90
2019-06-26T18:15:14.401Z,27.80
2019-06-26T18:17:40.965Z,27.80
2019-06-26T18:20:07.687Z,27.80
2019-06-26T18:22:34.269Z,27.80
2019-06-26T18:25:00.948Z,27.60
2019-06-26T18:27:27.335Z,27.70
2019-06-26T18:29:53.696Z,27.60
2019-06-26T18:32:20.174Z,27.60
2019-06-26T18:34:46.970Z,27.60
2019-06-26T18:37:13.643Z,27.60
2019-06-26T18:39:40.214Z,27.50
2019-06-26T18:42:07.025Z,27.30
2019-06-26T18:44:33.325Z,27.30
2019-06-26T18:46:59.620Z,27.30
2019-06-26T18:49:26.978Z,27.20
2019-06-26T18:51:53.296Z,27.20
2019-06-26T18:54:19.588Z,27.20
2019-06-26T18:56:45.861Z,27.10
2019-06-26T18:59:12.099Z,27.00
2019-06-26T19:01:38.380Z,27.00
2019-06-26T19:04:04.646Z,27.00
2019-06-26T19:06:30.924Z,26.90
2019-06-26T19:08:57.424Z,26.90
2019-06-26T19:11:23.611Z,26.90
2019-06-26T19:13:51.318Z,26.80
2019-06-26T19:16:17.910Z,26.80
2019-06-26T19:18:44.210Z,26.80
2019-06-26T19:21:10.806Z,26.60
2019-06-26T19:23:37.206Z,26.50
2019-06-26T19:26:03.450Z,26.50
2019-06-26T19:28:29.659Z,26.40
2019-06-26T19:30:56.570Z,26.30
2019-06-26T19:33:22.916Z,26.20
2019-06-26T19:35:49.221Z,26.00
2019-06-26T19:38:15.536Z,25.90
2019-06-26T19:40:42.255Z,25.90
2019-06-26T19:43:11.016Z,25.80
2019-06-26T19:45:36.708Z,25.70
2019-06-26T19:48:03.386Z,25.60
2019-06-26T19:50:29.733Z,25.50
2019-06-26T19:52:56.544Z,25.50
2019-06-26T19:55:22.761Z,25.50
2019-06-26T19:57:49.415Z,25.50
2019-06-26T20:00:15.746Z,25.50
2019-06-26T20:02:42.480Z,25.50
2019-06-26T20:05:09.838Z,25.40
2019-06-26T20:07:36.103Z,25.30
2019-06-26T20:10:04.715Z,25.20
2019-06-26T20:12:31.702Z,25.10
2019-06-26T20:14:58.029Z,25.00
2019-06-26T20:17:25.929Z,25.00
2019-06-26T20:19:52.686Z,24.90
2019-06-26T20:22:19.103Z,24.90
2019-06-26T20:24:45.254Z,24.80
2019-06-26T20:27:11.569Z,24.80
2019-06-26T20:29:38.224Z,24.70
2019-06-26T20:32:06.913Z,24.70
2019-06-26T20:34:33.212Z,24.70
2019-06-26T20:36:59.622Z,24.70
2019-06-26T20:39:26.255Z,24.60
2019-06-26T20:41:52.728Z,24.50
2019-06-26T20:44:19.161Z,24.40
2019-06-26T20:46:45.858Z,24.20
2019-06-26T20:49:12.122Z,24.20
2019-06-26T20:51:38.834Z,24.20
2019-06-26T20:54:05.140Z,24.20
2019-06-26T20:56:31.346Z,24.20
2019-06-26T20:58:57.749Z,24.10
2019-06-26T21:01:24.188Z,24.10
2019-06-26T21:03:51.238Z,24.00
2019-06-26T21:06:18.256Z,23.90
2019-06-26T21:08:45.088Z,23.90
2019-06-26T21:11:11.536Z,23.80
2019-06-26T21:13:38.103Z,23.70
2019-06-26T21:16:05.202Z,23.70
2019-06-26T21:18:31.462Z,23.70
2019-06-26T21:20:59.388Z,23.60
2019-06-26T21:23:26.078Z,23.60
2019-06-26T21:25:52.379Z,23.50
2019-06-26T21:28:18.544Z,23.40
2019-06-26T21:30:44.739Z,23.20
2019-06-26T21:33:11.797Z,23.10
2019-06-26T21:35:38.059Z,23.20
2019-06-26T21:38:04.241Z,23.10
2019-06-26T21:40:30.626Z,23.00
2019-06-26T21:42:56.926Z,22.90
2019-06-26T21:45:23.229Z,22.90
2019-06-26T21:47:49.394Z,22.90
2019-06-26T21:50:15.631Z,22.80
2019-06-26T21:52:41.987Z,22.80
2019-06-26T21:55:11.910Z,22.60
2019-06-26T21:57:56.832Z,22.50
2019-06-26T22:00:42.190Z,22.40
2019-06-26T22:03:28.203Z,22.30
2019-06-26T22:05:56.812Z,22.30
2019-06-26T22:08:34.363Z,22.20
2019-06-26T22:11:02.897Z,22.20
2019-06-26T22:13:29.264Z,22.20
2019-06-26T22:15:55.422Z,22.00
2019-06-26T22:18:21.716Z,21.90
2019-06-26T22:20:47.927Z,21.80
2019-06-26T22:23:14.179Z,21.70
2019-06-26T22:25:50.289Z,21.60
2019-06-26T22:28:08.512Z,21.50
2019-06-26T22:30:34.747Z,21.40
2019-06-26T22:33:01.009Z,21.40
2019-06-26T22:35:27.461Z,21.30
2019-06-26T22:37:54.771Z,21.20
2019-06-26T22:40:21.201Z,21.10
2019-06-26T22:42:47.706Z,21.00
2019-06-26T22:45:14.190Z,20.80
2019-06-26T22:47:40.569Z,20.70
2019-06-26T22:50:07.652Z,20.60
2019-06-26T22:52:34.027Z,20.50
2019-06-26T22:55:00.289Z,20.50
2019-06-26T22:57:26.885Z,20.40
2019-06-26T22:59:53.382Z,20.30
2019-06-26T23:02:19.609Z,20.30
2019-06-26T23:04:45.792Z,20.20
2019-06-26T23:07:12.136Z,20.00
2019-06-26T23:09:38.441Z,20.00
2019-06-26T23:12:04.658Z,19.90
2019-06-26T23:14:31.286Z,20.00
2019-06-26T23:16:57.700Z,19.90
2019-06-26T23:19:24.247Z,19.90
2019-06-26T23:21:50.538Z,19.70
2019-06-26T23:24:16.794Z,19.60
2019-06-26T23:26:44.569Z,19.60
2019-06-26T23:29:11.098Z,19.50
2019-06-26T23:31:37.877Z,19.50
2019-06-26T23:34:04.115Z,19.30
2019-06-26T23:36:30.304Z,19.30
2019-06-26T23:38:56.881Z,19.40
2019-06-26T23:41:23.437Z,19.30
2019-06-26T23:43:49.722Z,19.30
2019-06-26T23:46:17.227Z,19.20
2019-06-26T23:48:45.791Z,19.10
2019-06-26T23:51:12.073Z,19.00
2019-06-26T23:53:38.330Z,18.90
2019-06-26T23:56:04.629Z,18.80
2019-06-26T23:58:31.145Z,18.70
